sensor_id;sensor_type;location;lat;lon;timestamp;P1;durP1;ratioP1;P2;durP2;ratioP2
21122;SDS011;10719;48.130;11.630;2023-03-01T00:01:13;16.77;;;5.50;;
21122;SDS011;10719;48.130;11.630;2023-03-01T00:03:41;10.50;;;3.73;;
21122;SDS011;10719;48.130;11.630;2023-03-01T00:06:07;10.63;;;4.57;;
21122;SDS011;10719;48.130;11.630;2023-03-01T00:08:33;9.70;;;3.47;;
21122;SDS011;10719;48.130;11.630;2023-03-01T00:11:02;8.33;;;3.60;;
21122;SDS011;10719;48.130;11.630;2023-03-01T00:13:30;11.50;;;5.27;;
21122;SDS011;10719;48.130;11.630;2023-03-01T00:15:56;10.13;;;4.37;;
21122;SDS011;10719;48.130;11.630;2023-03-01T00:18:21;9.80;;;4.20;;
21122;SDS011;10719;48.130;11.630;2023-03-01T00:20:54;9.53;;;4.00;;
21122;SDS011;10719;48.130;11.630;2023-03-01T00:23:21;8.37;;;2.97;;
21122;SDS011;10719;48.130;11.630;2023-03-01T00:25:47;12.17;;;4.17;;
21122;SDS011;10719;48.130;11.630;2023-03-01T00:28:13;10.80;;;4.50;;
21122;SDS011;10719;48.130;11.630;2023-03-01T00:30:39;12.63;;;5.43;;
21122;SDS011;10719;48.130;11.630;2023-03-01T00:33:05;9.60;;;4.07;;
21122;SDS011;10719;48.130;11.630;2023-03-01T00:35:34;8.37;;;3.77;;
21122;SDS011;10719;48.130;11.630;2023-03-01T00:38:00;9.83;;;3.40;;
21122;SDS011;10719;48.130;11.630;2023-03-01T00:40:27;10.53;;;3.57;;
21122;SDS011;10719;48.130;11.630;2023-03-01T00:42:53;14.17;;;4.80;;
21122;SDS011;10719;48.130;11.630;2023-03-01T00:45:19;11.60;;;4.57;;
21122;SDS011;10719;48.130;11.630;2023-03-01T00:47:45;9.60;;;4.13;;
21122;SDS011;10719;48.130;11.630;2023-03-01T00:50:11;9.07;;;4.10;;
21122;SDS011;10719;48.130;11.630;2023-03-01T00:52:37;10.40;;;3.90;;
21122;SDS011;10719;48.130;11.630;2023-03-01T00:55:03;8.87;;;3.83;;
21122;SDS011;10719;48.130;11.630;2023-03-01T00:57:29;11.73;;;3.73;;
21122;SDS011;10719;48.130;11.630;2023-03-01T00:59:55;11.57;;;3.73;;
21122;SDS011;10719;48.130;11.630;2023-03-01T01:02:21;9.93;;;4.00;;
21122;SDS011;10719;48.130;11.630;2023-03-01T01:04:47;9.87;;;3.67;;
21122;SDS011;10719;48.130;11.630;2023-03-01T01:07:13;10.50;;;3.73;;
21122;SDS011;10719;48.130;11.630;2023-03-01T01:09:39;15.10;;;5.03;;
21122;SDS011;10719;48.130;11.630;2023-03-01T01:12:05;7.93;;;3.03;;
21122;SDS011;10719;48.130;11.630;2023-03-01T01:14:31;10.70;;;3.60;;
21122;SDS011;10719;48.130;11.630;2023-03-01T01:16:57;9.47;;;3.87;;
21122;SDS011;10719;48.130;11.630;2023-03-01T01:19:23;18.90;;;5.57;;
21122;SDS011;10719;48.130;11.630;2023-03-01T01:21:50;11.80;;;5.00;;
21122;SDS011;10719;48.130;11.630;2023-03-01T01:24:16;8.43;;;3.33;;
21122;SDS011;10719;48.130;11.630;2023-03-01T01:26:43;9.47;;;4.40;;
21122;SDS011;10719;48.130;11.630;2023-03-01T01:29:08;10.07;;;3.17;;
21122;SDS011;10719;48.130;11.630;2023-03-01T01:31:35;10.27;;;3.93;;
21122;SDS011;10719;48.130;11.630;2023-03-01T01:34:02;8.97;;;3.37;;
21122;SDS011;10719;48.130;11.630;2023-03-01T01:36:29;11.23;;;4.53;;
21122;SDS011;10719;48.130;11.630;2023-03-01T01:38:55;12.47;;;4.03;;
21122;SDS011;10719;48.130;11.630;2023-03-01T01:41:21;10.73;;;4.77;;
21122;SDS011;10719;48.130;11.630;2023-03-01T01:43:49;13.10;;;4.23;;
21122;SDS011;10719;48.130;11.630;2023-03-01T01:51:37;6.63;;;3.23;;
21122;SDS011;10719;48.130;11.630;2023-03-01T01:54:11;10.40;;;4.13;;
21122;SDS011;10719;48.130;11.630;2023-03-01T01:56:41;12.53;;;4.60;;
21122;SDS011;10719;48.130;11.630;2023-03-01T01:59:12;7.80;;;2.90;;
21122;SDS011;10719;48.130;11.630;2023-03-01T02:01:39;7.47;;;3.57;;
21122;SDS011;10719;48.130;11.630;2023-03-01T02:04:05;10.00;;;3.57;;
21122;SDS011;10719;48.130;11.630;2023-03-01T02:06:34;7.73;;;3.17;;
21122;SDS011;10719;48.130;11.630;2023-03-01T02:09:05;10.97;;;3.80;;
21122;SDS011;10719;48.130;11.630;2023-03-01T02:11:33;11.07;;;4.67;;
21122;SDS011;10719;48.130;11.630;2023-03-01T02:13:59;8.70;;;3.87;;
21122;SDS011;10719;48.130;11.630;2023-03-01T02:16:25;9.87;;;3.30;;
21122;SDS011;10719;48.130;11.630;2023-03-01T02:18:51;17.90;;;7.85;;
21122;SDS011;10719;48.130;11.630;2023-03-01T02:24:04;10.97;;;4.50;;
21122;SDS011;10719;48.130;11.630;2023-03-01T02:26:54;8.10;;;4.27;;
21122;SDS011;10719;48.130;11.630;2023-03-01T02:29:22;11.63;;;5.27;;
21122;SDS011;10719;48.130;11.630;2023-03-01T02:31:49;11.20;;;4.53;;
21122;SDS011;10719;48.130;11.630;2023-03-01T02:34:21;14.53;;;4.20;;
21122;SDS011;10719;48.130;11.630;2023-03-01T02:37:01;12.13;;;3.77;;
21122;SDS011;10719;48.130;11.630;2023-03-01T02:39:34;11.87;;;4.47;;
21122;SDS011;10719;48.130;11.630;2023-03-01T02:42:06;14.60;;;3.43;;
21122;SDS011;10719;48.130;11.630;2023-03-01T02:44:37;11.53;;;3.73;;
21122;SDS011;10719;48.130;11.630;2023-03-01T02:47:03;9.43;;;3.33;;
21122;SDS011;10719;48.130;11.630;2023-03-01T02:49:30;8.33;;;3.80;;
21122;SDS011;10719;48.130;11.630;2023-03-01T02:54:47;10.57;;;3.77;;
21122;SDS011;10719;48.130;11.630;2023-03-01T02:57:23;10.27;;;4.07;;
21122;SDS011;10719;48.130;11.630;2023-03-01T02:59:49;7.13;;;2.87;;
21122;SDS011;10719;48.130;11.630;2023-03-01T03:02:21;9.73;;;3.67;;
21122;SDS011;10719;48.130;11.630;2023-03-01T03:05:12;8.90;;;2.57;;
21122;SDS011;10719;48.130;11.630;2023-03-01T03:07:47;11.33;;;3.17;;
21122;SDS011;10719;48.130;11.630;2023-03-01T03:10:23;7.30;;;3.57;;
21122;SDS011;10719;48.130;11.630;2023-03-01T03:12:54;8.10;;;3.13;;
21122;SDS011;10719;48.130;11.630;2023-03-01T03:15:22;7.70;;;3.60;;
21122;SDS011;10719;48.130;11.630;2023-03-01T03:17:48;12.70;;;3.87;;
21122;SDS011;10719;48.130;11.630;2023-03-01T03:20:15;8.37;;;3.43;;
21122;SDS011;10719;48.130;11.630;2023-03-01T03:22:44;9.83;;;4.07;;
21122;SDS011;10719;48.130;11.630;2023-03-01T03:25:11;7.43;;;3.67;;
21122;SDS011;10719;48.130;11.630;2023-03-01T03:27:40;7.87;;;2.90;;
21122;SDS011;10719;48.130;11.630;2023-03-01T03:30:08;9.70;;;3.50;;
21122;SDS011;10719;48.130;11.630;2023-03-01T03:32:38;9.20;;;4.60;;
21122;SDS011;10719;48.130;11.630;2023-03-01T03:35:05;12.13;;;3.80;;
21122;SDS011;10719;48.130;11.630;2023-03-01T03:37:37;10.80;;;3.60;;
21122;SDS011;10719;48.130;11.630;2023-03-01T03:40:22;7.10;;;3.20;;
21122;SDS011;10719;48.130;11.630;2023-03-01T03:42:47;10.57;;;4.13;;
21122;SDS011;10719;48.130;11.630;2023-03-01T03:45:13;8.90;;;3.80;;
21122;SDS011;10719;48.130;11.630;2023-03-01T03:47:39;7.77;;;3.97;;
21122;SDS011;10719;48.130;11.630;2023-03-01T03:50:05;10.10;;;4.10;;
21122;SDS011;10719;48.130;11.630;2023-03-01T03:52:30;11.07;;;3.47;;
21122;SDS011;10719;48.130;11.630;2023-03-01T03:54:56;12.07;;;3.60;;
21122;SDS011;10719;48.130;11.630;2023-03-01T03:57:21;7.53;;;2.57;;
21122;SDS011;10719;48.130;11.630;2023-03-01T03:59:47;8.63;;;3.13;;
21122;SDS011;10719;48.130;11.630;2023-03-01T04:02:13;8.50;;;3.73;;
21122;SDS011;10719;48.130;11.630;2023-03-01T04:04:46;16.30;;;4.77;;
21122;SDS011;10719;48.130;11.630;2023-03-01T04:07:14;9.27;;;3.50;;
21122;SDS011;10719;48.130;11.630;2023-03-01T04:09:40;11.87;;;4.93;;
21122;SDS011;10719;48.130;11.630;2023-03-01T04:12:08;10.10;;;4.60;;
21122;SDS011;10719;48.130;11.630;2023-03-01T04:14:34;7.50;;;3.60;;
21122;SDS011;10719;48.130;11.630;2023-03-01T04:17:00;9.27;;;4.10;;
21122;SDS011;10719;48.130;11.630;2023-03-01T04:19:26;8.10;;;3.90;;
21122;SDS011;10719;48.130;11.630;2023-03-01T04:21:52;11.23;;;4.60;;
21122;SDS011;10719;48.130;11.630;2023-03-01T04:24:18;14.83;;;4.90;;
21122;SDS011;10719;48.130;11.630;2023-03-01T04:26:44;8.57;;;3.07;;
21122;SDS011;10719;48.130;11.630;2023-03-01T04:29:09;9.30;;;3.53;;
21122;SDS011;10719;48.130;11.630;2023-03-01T04:31:35;9.77;;;3.80;;
21122;SDS011;10719;48.130;11.630;2023-03-01T04:34:01;12.40;;;5.00;;
21122;SDS011;10719;48.130;11.630;2023-03-01T04:36:28;8.20;;;3.90;;
21122;SDS011;10719;48.130;11.630;2023-03-01T04:38:54;7.90;;;3.27;;
21122;SDS011;10719;48.130;11.630;2023-03-01T04:41:21;13.97;;;3.50;;
21122;SDS011;10719;48.130;11.630;2023-03-01T04:43:48;18.48;;;8.23;;
21122;SDS011;10719;48.130;11.630;2023-03-01T04:46:15;11.43;;;4.30;;
21122;SDS011;10719;48.130;11.630;2023-03-01T04:48:43;8.07;;;3.53;;
21122;SDS011;10719;48.130;11.630;2023-03-01T04:51:09;8.90;;;3.93;;
21122;SDS011;10719;48.130;11.630;2023-03-01T04:53:38;6.93;;;3.57;;
21122;SDS011;10719;48.130;11.630;2023-03-01T04:56:05;7.10;;;3.10;;
21122;SDS011;10719;48.130;11.630;2023-03-01T04:58:31;8.63;;;3.67;;
21122;SDS011;10719;48.130;11.630;2023-03-01T05:00:57;13.70;;;4.23;;
21122;SDS011;10719;48.130;11.630;2023-03-01T05:03:23;9.43;;;4.17;;
21122;SDS011;10719;48.130;11.630;2023-03-01T05:05:49;9.37;;;4.10;;
21122;SDS011;10719;48.130;11.630;2023-03-01T05:08:17;9.93;;;4.27;;
21122;SDS011;10719;48.130;11.630;2023-03-01T05:10:47;12.53;;;3.50;;
21122;SDS011;10719;48.130;11.630;2023-03-01T05:13:15;8.23;;;2.63;;
21122;SDS011;10719;48.130;11.630;2023-03-01T05:15:46;7.17;;;2.77;;
21122;SDS011;10719;48.130;11.630;2023-03-01T05:18:22;11.77;;;5.00;;
21122;SDS011;10719;48.130;11.630;2023-03-01T05:20:55;10.17;;;3.03;;
21122;SDS011;10719;48.130;11.630;2023-03-01T05:23:26;7.30;;;3.57;;
21122;SDS011;10719;48.130;11.630;2023-03-01T05:25:52;6.73;;;3.20;;
21122;SDS011;10719;48.130;11.630;2023-03-01T05:28:18;2.77;;;1.60;;
21122;SDS011;10719;48.130;11.630;2023-03-01T05:30:45;4.83;;;2.57;;
21122;SDS011;10719;48.130;11.630;2023-03-01T05:33:11;9.50;;;3.23;;
21122;SDS011;10719;48.130;11.630;2023-03-01T05:35:40;8.80;;;2.87;;
21122;SDS011;10719;48.130;11.630;2023-03-01T05:38:07;8.23;;;2.60;;
21122;SDS011;10719;48.130;11.630;2023-03-01T05:40:33;6.33;;;3.00;;
21122;SDS011;10719;48.130;11.630;2023-03-01T05:43:00;8.33;;;4.10;;
21122;SDS011;10719;48.130;11.630;2023-03-01T05:45:26;7.53;;;3.43;;
21122;SDS011;10719;48.130;11.630;2023-03-01T05:47:52;7.43;;;3.47;;
21122;SDS011;10719;48.130;11.630;2023-03-01T05:50:20;7.50;;;3.23;;
21122;SDS011;10719;48.130;11.630;2023-03-01T05:52:48;9.53;;;3.37;;
21122;SDS011;10719;48.130;11.630;2023-03-01T05:55:20;7.20;;;3.53;;
21122;SDS011;10719;48.130;11.630;2023-03-01T05:57:46;6.30;;;3.27;;
21122;SDS011;10719;48.130;11.630;2023-03-01T06:00:13;9.13;;;3.27;;
21122;SDS011;10719;48.130;11.630;2023-03-01T06:02:41;11.17;;;4.40;;
21122;SDS011;10719;48.130;11.630;2023-03-01T06:05:07;6.77;;;2.57;;
21122;SDS011;10719;48.130;11.630;2023-03-01T06:07:34;7.90;;;3.17;;
21122;SDS011;10719;48.130;11.630;2023-03-01T06:10:00;7.00;;;2.90;;
21122;SDS011;10719;48.130;11.630;2023-03-01T06:12:29;6.77;;;2.90;;
21122;SDS011;10719;48.130;11.630;2023-03-01T06:14:59;11.67;;;4.13;;
21122;SDS011;10719;48.130;11.630;2023-03-01T06:17:25;10.60;;;3.37;;
21122;SDS011;10719;48.130;11.630;2023-03-01T06:19:50;10.93;;;3.87;;
21122;SDS011;10719;48.130;11.630;2023-03-01T06:22:16;6.47;;;2.57;;
21122;SDS011;10719;48.130;11.630;2023-03-01T06:24:42;9.73;;;4.50;;
21122;SDS011;10719;48.130;11.630;2023-03-01T06:27:07;11.33;;;3.83;;
21122;SDS011;10719;48.130;11.630;2023-03-01T06:29:33;7.83;;;3.37;;
21122;SDS011;10719;48.130;11.630;2023-03-01T06:31:59;16.20;;;4.17;;
21122;SDS011;10719;48.130;11.630;2023-03-01T06:34:24;11.00;;;4.63;;
21122;SDS011;10719;48.130;11.630;2023-03-01T06:36:50;7.87;;;3.10;;
21122;SDS011;10719;48.130;11.630;2023-03-01T06:39:15;11.47;;;3.97;;
21122;SDS011;10719;48.130;11.630;2023-03-01T06:41:42;9.87;;;4.60;;
21122;SDS011;10719;48.130;11.630;2023-03-01T06:44:08;11.13;;;4.13;;
21122;SDS011;10719;48.130;11.630;2023-03-01T06:46:34;11.00;;;4.60;;
21122;SDS011;10719;48.130;11.630;2023-03-01T06:48:59;7.60;;;3.60;;
21122;SDS011;10719;48.130;11.630;2023-03-01T06:51:25;7.30;;;3.43;;
21122;SDS011;10719;48.130;11.630;2023-03-01T06:53:51;10.43;;;3.57;;
21122;SDS011;10719;48.130;11.630;2023-03-01T06:56:16;9.13;;;3.70;;
21122;SDS011;10719;48.130;11.630;2023-03-01T06:58:42;6.80;;;3.10;;
21122;SDS011;10719;48.130;11.630;2023-03-01T07:01:08;14.20;;;5.70;;
21122;SDS011;10719;48.130;11.630;2023-03-01T07:03:34;7.43;;;3.00;;
21122;SDS011;10719;48.130;11.630;2023-03-01T07:06:00;5.80;;;2.00;;
21122;SDS011;10719;48.130;11.630;2023-03-01T07:08:25;10.97;;;4.37;;
21122;SDS011;10719;48.130;11.630;2023-03-01T07:10:55;4.93;;;3.10;;
21122;SDS011;10719;48.130;11.630;2023-03-01T07:13:21;9.90;;;3.37;;
21122;SDS011;10719;48.130;11.630;2023-03-01T07:15:47;11.43;;;4.07;;
21122;SDS011;10719;48.130;11.630;2023-03-01T07:18:13;8.00;;;3.30;;
21122;SDS011;10719;48.130;11.630;2023-03-01T07:20:38;11.63;;;3.90;;
21122;SDS011;10719;48.130;11.630;2023-03-01T07:23:05;7.30;;;3.37;;
21122;SDS011;10719;48.130;11.630;2023-03-01T07:25:31;10.30;;;3.97;;
21122;SDS011;10719;48.130;11.630;2023-03-01T07:27:57;6.70;;;2.67;;
21122;SDS011;10719;48.130;11.630;2023-03-01T07:30:23;9.57;;;4.97;;
21122;SDS011;10719;48.130;11.630;2023-03-01T07:32:53;12.57;;;3.73;;
21122;SDS011;10719;48.130;11.630;2023-03-01T07:35:22;11.77;;;3.93;;
21122;SDS011;10719;48.130;11.630;2023-03-01T07:37:49;8.60;;;3.50;;
21122;SDS011;10719;48.130;11.630;2023-03-01T07:40:15;7.27;;;3.13;;
21122;SDS011;10719;48.130;11.630;2023-03-01T07:42:40;11.60;;;3.73;;
21122;SDS011;10719;48.130;11.630;2023-03-01T07:45:06;16.67;;;4.77;;
21122;SDS011;10719;48.130;11.630;2023-03-01T07:47:32;8.10;;;3.63;;
21122;SDS011;10719;48.130;11.630;2023-03-01T07:49:58;11.57;;;5.13;;
21122;SDS011;10719;48.130;11.630;2023-03-01T07:52:26;8.63;;;3.13;;
21122;SDS011;10719;48.130;11.630;2023-03-01T07:54:51;10.20;;;4.30;;
21122;SDS011;10719;48.130;11.630;2023-03-01T07:57:17;8.63;;;3.00;;
21122;SDS011;10719;48.130;11.630;2023-03-01T07:59:42;6.30;;;3.17;;
21122;SDS011;10719;48.130;11.630;2023-03-01T08:02:09;7.23;;;3.30;;
21122;SDS011;10719;48.130;11.630;2023-03-01T08:04:35;8.47;;;3.07;;
21122;SDS011;10719;48.130;11.630;2023-03-01T08:07:00;10.13;;;3.23;;
21122;SDS011;10719;48.130;11.630;2023-03-01T08:09:29;12.97;;;4.07;;
21122;SDS011;10719;48.130;11.630;2023-03-01T08:11:55;11.80;;;4.87;;
21122;SDS011;10719;48.130;11.630;2023-03-01T08:14:21;11.63;;;4.33;;
21122;SDS011;10719;48.130;11.630;2023-03-01T08:16:48;10.83;;;5.60;;
21122;SDS011;10719;48.130;11.630;2023-03-01T08:19:14;9.73;;;3.67;;
21122;SDS011;10719;48.130;11.630;2023-03-01T08:21:40;9.70;;;4.23;;
21122;SDS011;10719;48.130;11.630;2023-03-01T08:24:06;10.13;;;3.57;;
21122;SDS011;10719;48.130;11.630;2023-03-01T08:26:32;10.00;;;4.13;;
21122;SDS011;10719;48.130;11.630;2023-03-01T08:28:59;11.13;;;4.37;;
21122;SDS011;10719;48.130;11.630;2023-03-01T08:31:26;10.80;;;4.60;;
21122;SDS011;10719;48.130;11.630;2023-03-01T08:33:56;10.23;;;3.43;;
21122;SDS011;10719;48.130;11.630;2023-03-01T08:36:25;9.13;;;3.60;;
21122;SDS011;10719;48.130;11.630;2023-03-01T08:38:56;14.13;;;5.40;;
21122;SDS011;10719;48.130;11.630;2023-03-01T08:41:22;9.80;;;3.60;;
21122;SDS011;10719;48.130;11.630;2023-03-01T08:43:48;14.10;;;4.83;;
21122;SDS011;10719;48.130;11.630;2023-03-01T08:46:13;9.93;;;4.80;;
21122;SDS011;10719;48.130;11.630;2023-03-01T08:48:39;10.87;;;4.20;;
21122;SDS011;10719;48.130;11.630;2023-03-01T08:51:11;10.47;;;4.10;;
21122;SDS011;10719;48.130;11.630;2023-03-01T08:53:39;8.60;;;4.33;;
21122;SDS011;10719;48.130;11.630;2023-03-01T08:56:05;13.13;;;4.33;;
21122;SDS011;10719;48.130;11.630;2023-03-01T08:58:31;15.50;;;5.57;;
21122;SDS011;10719;48.130;11.630;2023-03-01T09:00:57;15.67;;;5.63;;
21122;SDS011;10719;48.130;11.630;2023-03-01T09:03:23;11.27;;;4.03;;
21122;SDS011;10719;48.130;11.630;2023-03-01T09:05:49;13.97;;;5.63;;
21122;SDS011;10719;48.130;11.630;2023-03-01T09:08:16;10.87;;;4.27;;
21122;SDS011;10719;48.130;11.630;2023-03-01T09:10:42;12.17;;;5.03;;
21122;SDS011;10719;48.130;11.630;2023-03-01T09:13:08;13.57;;;4.97;;
21122;SDS011;10719;48.130;11.630;2023-03-01T09:15:34;12.93;;;5.67;;
21122;SDS011;10719;48.130;11.630;2023-03-01T09:18:01;11.37;;;5.10;;
21122;SDS011;10719;48.130;11.630;2023-03-01T09:20:26;11.97;;;4.63;;
21122;SDS011;10719;48.130;11.630;2023-03-01T09:22:52;9.67;;;3.63;;
21122;SDS011;10719;48.130;11.630;2023-03-01T09:25:18;9.70;;;4.33;;
21122;SDS011;10719;48.130;11.630;2023-03-01T09:27:43;17.73;;;7.20;;
21122;SDS011;10719;48.130;11.630;2023-03-01T09:30:09;14.07;;;5.93;;
21122;SDS011;10719;48.130;11.630;2023-03-01T09:32:35;8.37;;;4.33;;
21122;SDS011;10719;48.130;11.630;2023-03-01T09:35:00;16.53;;;5.43;;
21122;SDS011;10719;48.130;11.630;2023-03-01T09:37:28;12.60;;;4.63;;
21122;SDS011;10719;48.130;11.630;2023-03-01T09:39:54;12.17;;;4.47;;
21122;SDS011;10719;48.130;11.630;2023-03-01T09:42:20;13.87;;;5.53;;
21122;SDS011;10719;48.130;11.630;2023-03-01T09:44:47;10.93;;;4.33;;
21122;SDS011;10719;48.130;11.630;2023-03-01T09:47:31;10.57;;;4.60;;
21122;SDS011;10719;48.130;11.630;2023-03-01T09:54:59;14.20;;;4.83;;
21122;SDS011;10719;48.130;11.630;2023-03-01T09:57:30;14.10;;;4.40;;
21122;SDS011;10719;48.130;11.630;2023-03-01T10:02:39;12.50;;;4.60;;
21122;SDS011;10719;48.130;11.630;2023-03-01T10:05:29;13.10;;;4.77;;
21122;SDS011;10719;48.130;11.630;2023-03-01T10:08:23;8.83;;;4.23;;
21122;SDS011;10719;48.130;11.630;2023-03-01T10:10:56;11.30;;;4.73;;
21122;SDS011;10719;48.130;11.630;2023-03-01T10:16:12;11.73;;;4.97;;
21122;SDS011;10719;48.130;11.630;2023-03-01T10:18:41;10.40;;;4.47;;
21122;SDS011;10719;48.130;11.630;2023-03-01T10:21:18;20.53;;;5.33;;
21122;SDS011;10719;48.130;11.630;2023-03-01T10:23:45;13.83;;;5.13;;
21122;SDS011;10719;48.130;11.630;2023-03-01T10:29:03;13.63;;;4.53;;
21122;SDS011;10719;48.130;11.630;2023-03-01T10:34:12;10.87;;;4.63;;
21122;SDS011;10719;48.130;11.630;2023-03-01T10:36:39;16.40;;;5.35;;
21122;SDS011;10719;48.130;11.630;2023-03-01T10:39:40;9.37;;;4.67;;
21122;SDS011;10719;48.130;11.630;2023-03-01T10:42:00;20.30;;;7.03;;
21122;SDS011;10719;48.130;11.630;2023-03-01T10:47:12;21.65;;;6.60;;
21122;SDS011;10719;48.130;11.630;2023-03-01T10:49:43;13.52;;;5.40;;
21122;SDS011;10719;48.130;11.630;2023-03-01T10:52:20;24.30;;;9.27;;
21122;SDS011;10719;48.130;11.630;2023-03-01T10:54:54;14.45;;;6.63;;
21122;SDS011;10719;48.130;11.630;2023-03-01T10:57:29;15.82;;;7.05;;
21122;SDS011;10719;48.130;11.630;2023-03-01T11:00:25;16.83;;;6.70;;
21122;SDS011;10719;48.130;11.630;2023-03-01T11:05:23;17.75;;;7.03;;
21122;SDS011;10719;48.130;11.630;2023-03-01T11:10:28;16.08;;;7.32;;
21122;SDS011;10719;48.130;11.630;2023-03-01T11:13:06;19.10;;;7.85;;
21122;SDS011;10719;48.130;11.630;2023-03-01T11:15:40;18.05;;;7.30;;
21122;SDS011;10719;48.130;11.630;2023-03-01T11:18:15;17.75;;;7.38;;
21122;SDS011;10719;48.130;11.630;2023-03-01T11:20:47;17.77;;;7.22;;
21122;SDS011;10719;48.130;11.630;2023-03-01T11:23:16;17.95;;;7.40;;
21122;SDS011;10719;48.130;11.630;2023-03-01T11:25:43;15.10;;;6.95;;
21122;SDS011;10719;48.130;11.630;2023-03-01T11:28:14;18.98;;;8.38;;
21122;SDS011;10719;48.130;11.630;2023-03-01T11:33:41;21.08;;;8.48;;
21122;SDS011;10719;48.130;11.630;2023-03-01T11:39:02;19.48;;;7.93;;
21122;SDS011;10719;48.130;11.630;2023-03-01T11:41:38;17.70;;;8.70;;
21122;SDS011;10719;48.130;11.630;2023-03-01T11:44:10;18.75;;;7.72;;
21122;SDS011;10719;48.130;11.630;2023-03-01T11:52:38;19.13;;;8.63;;
21122;SDS011;10719;48.130;11.630;2023-03-01T11:57:57;18.33;;;7.50;;
21122;SDS011;10719;48.130;11.630;2023-03-01T12:06:28;20.70;;;8.10;;
21122;SDS011;10719;48.130;11.630;2023-03-01T12:15:02;18.38;;;7.97;;
21122;SDS011;10719;48.130;11.630;2023-03-01T12:17:54;16.98;;;7.65;;
21122;SDS011;10719;48.130;11.630;2023-03-01T12:20:34;18.70;;;8.30;;
21122;SDS011;10719;48.130;11.630;2023-03-01T12:26:28;16.45;;;7.28;;
21122;SDS011;10719;48.130;11.630;2023-03-01T12:29:02;16.17;;;6.95;;
21122;SDS011;10719;48.130;11.630;2023-03-01T12:31:56;19.83;;;8.15;;
21122;SDS011;10719;48.130;11.630;2023-03-01T12:37:22;15.25;;;6.93;;
21122;SDS011;10719;48.130;11.630;2023-03-01T12:45:48;22.00;;;7.93;;
21122;SDS011;10719;48.130;11.630;2023-03-01T12:51:16;17.48;;;7.30;;
21122;SDS011;10719;48.130;11.630;2023-03-01T12:53:49;17.30;;;8.07;;
21122;SDS011;10719;48.130;11.630;2023-03-01T12:56:21;17.95;;;8.05;;
21122;SDS011;10719;48.130;11.630;2023-03-01T13:06:55;15.50;;;7.35;;
21122;SDS011;10719;48.130;11.630;2023-03-01T13:11:58;19.65;;;7.95;;
21122;SDS011;10719;48.130;11.630;2023-03-01T13:16:49;16.33;;;7.15;;
21122;SDS011;10719;48.130;11.630;2023-03-01T13:19:21;18.13;;;7.90;;
21122;SDS011;10719;48.130;11.630;2023-03-01T13:21:50;15.85;;;7.47;;
21122;SDS011;10719;48.130;11.630;2023-03-01T13:35:00;18.25;;;8.20;;
21122;SDS011;10719;48.130;11.630;2023-03-01T13:37:32;16.70;;;7.07;;
21122;SDS011;10719;48.130;11.630;2023-03-01T13:40:01;23.60;;;9.18;;
21122;SDS011;10719;48.130;11.630;2023-03-01T13:42:54;20.73;;;7.75;;
21122;SDS011;10719;48.130;11.630;2023-03-01T13:45:21;18.50;;;7.85;;
21122;SDS011;10719;48.130;11.630;2023-03-01T13:48:08;16.73;;;7.72;;
21122;SDS011;10719;48.130;11.630;2023-03-01T13:50:37;18.65;;;9.07;;
21122;SDS011;10719;48.130;11.630;2023-03-01T13:53:10;17.48;;;7.82;;
21122;SDS011;10719;48.130;11.630;2023-03-01T13:55:43;17.58;;;7.85;;
21122;SDS011;10719;48.130;11.630;2023-03-01T14:00:43;22.85;;;9.30;;
21122;SDS011;10719;48.130;11.630;2023-03-01T14:03:10;31.80;;;8.82;;
21122;SDS011;10719;48.130;11.630;2023-03-01T14:05:39;20.58;;;8.57;;
21122;SDS011;10719;48.130;11.630;2023-03-01T14:08:17;17.45;;;7.53;;
21122;SDS011;10719;48.130;11.630;2023-03-01T14:16:47;16.52;;;7.20;;
21122;SDS011;10719;48.130;11.630;2023-03-01T14:19:25;17.25;;;8.27;;
21122;SDS011;10719;48.130;11.630;2023-03-01T14:21:58;18.52;;;7.47;;
21122;SDS011;10719;48.130;11.630;2023-03-01T14:24:44;19.30;;;7.75;;
21122;SDS011;10719;48.130;11.630;2023-03-01T14:27:14;20.90;;;7.88;;
21122;SDS011;10719;48.130;11.630;2023-03-01T14:29:40;18.98;;;7.72;;
21122;SDS011;10719;48.130;11.630;2023-03-01T14:32:10;16.25;;;7.55;;
21122;SDS011;10719;48.130;11.630;2023-03-01T14:34:55;16.58;;;5.35;;
21122;SDS011;10719;48.130;11.630;2023-03-01T14:39:52;16.98;;;7.38;;
21122;SDS011;10719;48.130;11.630;2023-03-01T14:42:19;23.63;;;7.50;;
21122;SDS011;10719;48.130;11.630;2023-03-01T14:44:47;18.23;;;7.40;;
21122;SDS011;10719;48.130;11.630;2023-03-01T14:47:25;17.08;;;7.18;;
21122;SDS011;10719;48.130;11.630;2023-03-01T14:49:59;15.02;;;6.03;;
21122;SDS011;10719;48.130;11.630;2023-03-01T14:52:31;17.45;;;6.95;;
21122;SDS011;10719;48.130;11.630;2023-03-01T14:55:50;15.45;;;6.55;;
21122;SDS011;10719;48.130;11.630;2023-03-01T14:57:57;15.57;;;6.93;;
21122;SDS011;10719;48.130;11.630;2023-03-01T15:00:28;20.80;;;6.82;;
21122;SDS011;10719;48.130;11.630;2023-03-01T15:02:56;19.05;;;6.60;;
21122;SDS011;10719;48.130;11.630;2023-03-01T15:05:31;13.35;;;5.85;;
21122;SDS011;10719;48.130;11.630;2023-03-01T15:07:58;18.05;;;6.05;;
21122;SDS011;10719;48.130;11.630;2023-03-01T15:10:30;21.40;;;6.97;;
21122;SDS011;10719;48.130;11.630;2023-03-01T15:16:18;15.77;;;6.60;;
21122;SDS011;10719;48.130;11.630;2023-03-01T15:18:48;15.23;;;5.88;;
21122;SDS011;10719;48.130;11.630;2023-03-01T15:21:53;15.18;;;5.90;;
21122;SDS011;10719;48.130;11.630;2023-03-01T15:24:20;17.60;;;6.80;;
21122;SDS011;10719;48.130;11.630;2023-03-01T15:26:56;16.25;;;7.10;;
21122;SDS011;10719;48.130;11.630;2023-03-01T15:29:27;17.27;;;6.50;;
21122;SDS011;10719;48.130;11.630;2023-03-01T15:32:02;14.45;;;5.13;;
21122;SDS011;10719;48.130;11.630;2023-03-01T15:34:37;14.38;;;4.85;;
21122;SDS011;10719;48.130;11.630;2023-03-01T15:37:04;13.65;;;5.38;;
21122;SDS011;10719;48.130;11.630;2023-03-01T15:39:53;15.23;;;5.47;;
21122;SDS011;10719;48.130;11.630;2023-03-01T15:48:04;13.98;;;5.60;;
21122;SDS011;10719;48.130;11.630;2023-03-01T15:50:40;17.85;;;6.38;;
21122;SDS011;10719;48.130;11.630;2023-03-01T15:53:06;19.42;;;8.30;;
21122;SDS011;10719;48.130;11.630;2023-03-01T15:55:36;18.73;;;7.45;;
21122;SDS011;10719;48.130;11.630;2023-03-01T15:58:21;16.40;;;6.22;;
21122;SDS011;10719;48.130;11.630;2023-03-01T16:00:49;16.20;;;5.50;;
21122;SDS011;10719;48.130;11.630;2023-03-01T16:03:21;17.50;;;6.70;;
21122;SDS011;10719;48.130;11.630;2023-03-01T16:05:47;16.40;;;7.07;;
21122;SDS011;10719;48.130;11.630;2023-03-01T16:08:16;20.25;;;7.75;;
21122;SDS011;10719;48.130;11.630;2023-03-01T16:10:42;18.13;;;6.55;;
21122;SDS011;10719;48.130;11.630;2023-03-01T16:13:08;15.90;;;5.50;;
21122;SDS011;10719;48.130;11.630;2023-03-01T16:15:38;15.05;;;6.40;;
21122;SDS011;10719;48.130;11.630;2023-03-01T16:18:05;24.27;;;8.05;;
21122;SDS011;10719;48.130;11.630;2023-03-01T16:20:33;15.93;;;6.60;;
21122;SDS011;10719;48.130;11.630;2023-03-01T16:23:03;21.38;;;6.68;;
21122;SDS011;10719;48.130;11.630;2023-03-01T16:25:33;20.73;;;6.32;;
21122;SDS011;10719;48.130;11.630;2023-03-01T16:27:59;15.38;;;5.88;;
21122;SDS011;10719;48.130;11.630;2023-03-01T16:30:29;14.30;;;5.40;;
21122;SDS011;10719;48.130;11.630;2023-03-01T16:32:55;14.45;;;5.13;;
21122;SDS011;10719;48.130;11.630;2023-03-01T16:35:21;15.65;;;6.25;;
21122;SDS011;10719;48.130;11.630;2023-03-01T16:37:48;12.68;;;4.95;;